Terminal Aerodrome Forecast
Issued by NWS

Home | Current Version | Previous Version | Graphics & Text | Print | Product List | Glossary On
Versions: 1 2 3 4 5 6 7 8 9 10 11 12 13 14 15 16 17 18 19 20 21 22 23 24 25 26 27 28 29 30 31
000
FTUS43 KLOT 200527
TAFORD
TAF
KORD 200527Z 2006/2112 04013G17KT 4SM BR VCSH BKN006 OVC018
      TEMPO 2006/2009 2SM BR BKN004
     FM200900 04013G17KT 6SM BR SCT006 OVC010
     FM201400 03012KT 6SM BR VCSH SCT007 OVC015
     FM201700 05010KT P6SM SCT007 OVC020
     FM202100 05008KT P6SM FEW009 OVC022 PROB30 2109/2111 6SM -SHRA=

USA.gov is the U.S. government's official web portal to all federal, state and local government web resources and services.